Time;durP1;ratioP1;P1;durP2;ratioP2;P2;SDS_P1;SDS_P2;PMS_P1;PMS_P2;Temp;Humidity;BMP_temperature;BMP_pressure;BME280_temperature;BME280_humidity;BME280_pressure;Samples;Min_cycle;Max_cycle;Signal;HPM_P1;HPM_P2
2023/12/07 00:00:38;;;;;;;60.83;32.72;;;3.60;74.40;;;;;;4960112;29;20027;-63
2023/12/07 00:03:06;;;;;;;63.03;32.30;;;3.60;74.60;;;;;;4960089;29;20035;-63
2023/12/07 00:05:33;;;;;;;57.65;31.73;;;3.60;74.60;;;;;;4959574;29;20023;-63
2023/12/07 00:07:59;;;;;;;59.70;31.60;;;3.60;74.60;;;;;;4959354;29;20042;-63
2023/12/07 00:10:25;;;;;;;60.25;32.92;;;3.50;74.60;;;;;;4958389;29;20361;-63
2023/12/07 00:12:51;;;;;;;56.15;30.88;;;3.60;75.00;;;;;;4959906;29;20034;-63
2023/12/07 00:15:17;;;;;;;60.78;32.92;;;3.50;74.70;;;;;;4959485;29;20030;-63
2023/12/07 00:17:43;;;;;;;58.15;34.20;;;3.60;74.80;;;;;;4959810;29;20035;-63
2023/12/07 00:20:09;;;;;;;58.88;33.25;;;3.60;74.90;;;;;;4959230;29;20334;-63
2023/12/07 00:22:35;;;;;;;70.07;38.15;;;3.50;74.50;;;;;;4959450;29;20074;-63
2023/12/07 00:25:01;;;;;;;57.40;31.58;;;3.50;75.00;;;;;;4959368;29;20027;-63
2023/12/07 00:27:27;;;;;;;49.95;27.55;;;3.50;75.20;;;;;;4959080;29;20114;-63
2023/12/07 00:29:53;;;;;;;60.10;32.80;;;3.50;75.00;;;;;;4959384;29;20377;-63
2023/12/07 00:32:19;;;;;;;58.22;30.30;;;3.50;75.10;;;;;;4959068;29;20111;-63
2023/12/07 00:34:45;;;;;;;53.67;31.75;;;3.50;75.10;;;;;;4959221;29;20020;-63
2023/12/07 00:37:12;;;;;;;58.58;31.95;;;3.50;75.00;;;;;;4959716;29;20042;-64
2023/12/07 00:39:37;;;;;;;63.85;32.97;;;3.50;74.70;;;;;;4958929;29;20380;-63
2023/12/07 00:42:04;;;;;;;62.35;32.40;;;3.50;74.80;;;;;;4959401;29;20487;-63
2023/12/07 00:44:30;;;;;;;50.05;30.27;;;3.50;74.80;;;;;;4958590;29;20039;-63
2023/12/07 00:46:56;;;;;;;57.38;30.30;;;3.40;74.70;;;;;;4959253;29;20043;-63
2023/12/07 00:49:21;;;;;;;59.08;30.45;;;3.40;74.60;;;;;;4958673;29;20360;-63
2023/12/07 00:51:48;;;;;;;54.58;28.05;;;3.40;74.60;;;;;;4959237;29;20110;-63
2023/12/07 00:54:14;;;;;;;53.55;28.40;;;3.40;74.90;;;;;;4958819;29;20114;-63
2023/12/07 00:56:40;;;;;;;52.42;27.38;;;3.40;75.00;;;;;;4957869;28;20055;-63
2023/12/07 00:59:06;;;;;;;50.97;28.42;;;3.50;74.80;;;;;;4958556;29;20054;-63
2023/12/07 01:01:33;;;;;;;46.85;27.33;;;3.40;74.60;;;;;;4958454;29;20027;-63
2023/12/07 01:03:59;;;;;;;50.58;26.77;;;3.40;74.50;;;;;;4958878;29;20103;-63
2023/12/07 01:06:24;;;;;;;48.47;26.55;;;3.40;74.40;;;;;;4958670;29;20051;-63
2023/12/07 01:08:51;;;;;;;55.42;29.00;;;3.40;74.60;;;;;;4958793;29;20455;-63
2023/12/07 01:11:17;;;;;;;52.45;30.25;;;3.30;74.40;;;;;;4958643;29;20102;-63
2023/12/07 01:13:42;;;;;;;57.10;29.55;;;3.40;74.50;;;;;;4958239;29;20055;-64
2023/12/07 01:16:08;;;;;;;47.80;26.80;;;3.40;74.50;;;;;;4958764;29;20107;-63
2023/12/07 01:18:34;;;;;;;50.28;26.23;;;3.30;74.40;;;;;;4958210;29;20031;-63
2023/12/07 01:21:00;;;;;;;46.60;24.48;;;3.30;74.60;;;;;;4958162;29;20027;-63
2023/12/07 01:23:26;;;;;;;53.38;27.65;;;3.30;74.70;;;;;;4958159;29;20035;-63
2023/12/07 01:25:52;;;;;;;48.85;27.60;;;3.30;74.60;;;;;;4958021;29;20035;-63
2023/12/07 01:28:18;;;;;;;52.47;27.88;;;3.30;74.60;;;;;;4958477;29;20380;-63
2023/12/07 01:30:44;;;;;;;54.42;28.85;;;3.20;74.50;;;;;;4957969;29;20118;-63
2023/12/07 01:33:10;;;;;;;51.20;28.67;;;3.20;74.80;;;;;;4958474;29;20027;-63
2023/12/07 01:35:37;;;;;;;55.17;30.48;;;3.30;74.60;;;;;;4958078;29;20019;-63
2023/12/07 01:38:04;;;;;;;52.47;29.92;;;3.20;74.70;;;;;;4956854;29;20039;-63
2023/12/07 01:40:30;;;;;;;50.22;28.50;;;3.20;74.70;;;;;;4957736;28;20114;-63
2023/12/07 01:42:56;;;;;;;60.90;31.23;;;3.20;74.80;;;;;;4958282;29;20102;-64
2023/12/07 01:45:22;;;;;;;49.35;27.50;;;3.20;75.00;;;;;;4957511;29;20449;-63
2023/12/07 01:47:50;;;;;;;48.40;28.10;;;3.20;74.50;;;;;;4958162;29;20045;-64
2023/12/07 01:50:17;;;;;;;43.67;24.38;;;3.10;74.50;;;;;;4957649;29;20023;-63
2023/12/07 01:52:49;;;;;;;53.00;28.02;;;3.10;75.00;;;;;;4958097;29;20019;-63
2023/12/07 01:55:17;;;;;;;45.30;26.80;;;3.10;75.10;;;;;;4957749;29;20094;-63
2023/12/07 01:57:45;;;;;;;43.63;26.25;;;3.10;74.70;;;;;;4957573;29;20380;-63
2023/12/07 02:00:13;;;;;;;44.95;23.70;;;3.10;74.60;;;;;;4958035;29;20065;-63
2023/12/07 02:02:40;;;;;;;45.35;23.75;;;3.00;74.80;;;;;;4957478;29;20027;-63
2023/12/07 02:05:06;;;;;;;42.63;25.77;;;3.00;74.90;;;;;;4957389;29;20050;-63
2023/12/07 02:07:34;;;;;;;43.92;26.45;;;3.00;74.50;;;;;;4956985;28;20038;-63
2023/12/07 02:10:00;;;;;;;47.47;26.75;;;3.00;74.40;;;;;;4957394;29;20023;-63
2023/12/07 02:12:29;;;;;;;42.00;24.38;;;2.90;74.80;;;;;;4957625;29;20063;-63
2023/12/07 02:14:56;;;;;;;48.33;26.15;;;2.90;74.70;;;;;;4957497;29;20054;-63
2023/12/07 02:17:30;;;;;;;48.60;26.80;;;2.90;75.00;;;;;;4957833;29;20043;-63
2023/12/07 02:20:23;;;;;;;37.38;21.35;;;2.90;75.00;;;;;;4957576;29;20467;-63
2023/12/07 02:22:54;;;;;;;39.97;23.40;;;2.90;75.10;;;;;;4957579;29;20110;-63
2023/12/07 02:25:26;;;;;;;40.15;23.40;;;2.90;75.00;;;;;;4957198;29;20024;-63
2023/12/07 02:27:51;;;;;;;42.75;23.58;;;2.90;75.10;;;;;;4956540;29;20452;-63
2023/12/07 02:30:17;;;;;;;44.08;23.73;;;2.90;75.00;;;;;;4957445;29;20027;-63
2023/12/07 02:32:45;;;;;;;39.72;21.05;;;2.90;75.50;;;;;;4957367;29;20031;-63
2023/12/07 02:35:12;;;;;;;40.08;23.05;;;2.90;75.20;;;;;;4956936;29;20023;-63
2023/12/07 02:37:47;;;;;;;36.90;20.02;;;2.90;75.30;;;;;;4957328;29;20043;-63
2023/12/07 02:40:20;;;;;;;47.47;25.50;;;2.90;75.00;;;;;;4957624;29;20041;-63
2023/12/07 02:42:47;;;;;;;40.30;23.90;;;2.90;75.20;;;;;;4957638;29;20059;-63
2023/12/07 02:45:14;;;;;;;38.72;23.58;;;2.90;74.30;;;;;;4956835;29;20071;-63
2023/12/07 02:47:40;;;;;;;36.45;21.52;;;2.80;74.50;;;;;;4956935;29;20055;-63
2023/12/07 02:50:07;;;;;;;37.72;21.58;;;2.70;74.80;;;;;;4957017;29;20054;-63
2023/12/07 02:52:34;;;;;;;39.90;21.88;;;2.70;75.10;;;;;;4957209;29;20028;-63
2023/12/07 02:55:00;;;;;;;39.05;22.20;;;2.70;75.20;;;;;;4956890;29;20023;-63
2023/12/07 02:57:26;;;;;;;37.03;20.92;;;2.70;75.50;;;;;;4956932;29;20054;-63
2023/12/07 02:59:51;;;;;;;38.65;23.17;;;2.80;75.20;;;;;;4956926;29;20062;-63
2023/12/07 03:02:18;;;;;;;41.00;22.15;;;2.70;75.40;;;;;;4956888;29;20196;-63
2023/12/07 03:04:44;;;;;;;42.35;22.63;;;2.80;75.40;;;;;;4957334;29;20027;-63
2023/12/07 03:07:10;;;;;;;37.03;21.10;;;2.80;75.40;;;;;;4957260;29;20031;-63
2023/12/07 03:09:36;;;;;;;35.88;20.98;;;2.70;75.30;;;;;;4956860;29;20035;-63
2023/12/07 03:12:02;;;;;;;40.83;21.95;;;2.70;75.10;;;;;;4956808;29;20023;-63
2023/12/07 03:14:27;;;;;;;32.70;19.83;;;2.70;75.10;;;;;;4956728;29;20026;-63
2023/12/07 03:16:53;;;;;;;32.97;19.30;;;2.70;75.10;;;;;;4956693;29;20034;-63
2023/12/07 03:19:19;;;;;;;37.53;20.23;;;2.80;75.10;;;;;;4958026;28;20034;-63
2023/12/07 03:21:45;;;;;;;37.78;20.60;;;2.80;75.10;;;;;;4960349;29;20019;-63
2023/12/07 03:24:11;;;;;;;34.72;19.95;;;2.80;74.90;;;;;;4960231;29;20034;-63
2023/12/07 03:26:38;;;;;;;36.38;20.90;;;2.80;74.90;;;;;;4960203;29;20082;-63
2023/12/07 03:29:04;;;;;;;34.53;20.70;;;2.80;74.90;;;;;;4960507;29;20039;-63
2023/12/07 03:31:30;;;;;;;36.38;20.15;;;2.80;74.80;;;;;;4960437;29;20027;-63
2023/12/07 03:33:56;;;;;;;43.00;22.45;;;2.80;74.60;;;;;;4960085;29;20023;-63
2023/12/07 03:36:23;;;;;;;40.42;22.27;;;2.80;74.40;;;;;;4960305;29;20046;-63
2023/12/07 03:38:49;;;;;;;36.08;20.65;;;2.70;74.40;;;;;;4960036;29;20035;-63
2023/12/07 03:41:15;;;;;;;37.17;20.63;;;2.60;74.50;;;;;;4959949;29;20034;-63
2023/12/07 03:43:41;;;;;;;33.22;19.42;;;2.60;74.10;;;;;;4959854;29;20041;-63
2023/12/07 03:46:07;;;;;;;33.53;17.67;;;2.50;74.40;;;;;;4976945;28;20137;-63
2023/12/07 03:48:34;;;;;;;33.95;17.83;;;2.50;74.50;;;;;;4979598;28;20066;-63
2023/12/07 03:51:01;;;;;;;30.15;17.17;;;2.50;74.60;;;;;;4979389;28;20027;-63
2023/12/07 03:53:28;;;;;;;31.98;17.63;;;2.50;74.70;;;;;;4979366;28;20065;-63
2023/12/07 03:55:54;;;;;;;35.75;17.63;;;2.40;74.80;;;;;;4971279;28;20102;-63
2023/12/07 03:58:20;;;;;;;28.90;16.83;;;2.40;75.10;;;;;;4979015;28;20077;-63
2023/12/07 04:00:46;;;;;;;29.83;16.17;;;2.40;75.20;;;;;;4978937;28;20030;-63
2023/12/07 04:03:12;;;;;;;27.55;15.88;;;2.50;75.30;;;;;;4979175;28;20065;-63
2023/12/07 04:05:38;;;;;;;30.85;15.75;;;2.50;75.30;;;;;;4978837;28;20022;-63
2023/12/07 04:08:05;;;;;;;28.45;15.52;;;2.50;75.30;;;;;;4978747;28;20027;-63
2023/12/07 04:10:31;;;;;;;34.65;17.17;;;2.50;75.20;;;;;;4978688;28;20035;-63
2023/12/07 04:12:57;;;;;;;29.35;14.98;;;2.50;75.50;;;;;;4979078;28;20026;-63
2023/12/07 04:15:23;;;;;;;30.30;16.08;;;2.50;75.30;;;;;;4978681;28;20029;-63
2023/12/07 04:17:50;;;;;;;24.95;14.55;;;2.60;75.60;;;;;;4978695;28;20026;-63
2023/12/07 04:20:16;;;;;;;27.58;14.43;;;2.60;75.40;;;;;;4979132;28;20344;-63
2023/12/07 04:22:45;;;;;;;27.55;13.15;;;2.60;75.50;;;;;;4978482;28;20030;-63
2023/12/07 04:25:11;;;;;;;23.23;14.48;;;2.60;75.00;;;;;;4979196;28;20340;-63
2023/12/07 04:27:38;;;;;;;28.17;15.00;;;2.60;75.10;;;;;;4978455;28;20506;-63
2023/12/07 04:30:04;;;;;;;27.30;14.45;;;2.60;74.90;;;;;;4978239;28;20025;-63
2023/12/07 04:32:30;;;;;;;26.35;13.77;;;2.50;75.00;;;;;;4978431;28;20102;-63
2023/12/07 04:34:56;;;;;;;24.02;13.25;;;2.60;75.00;;;;;;4978285;28;20532;-63
2023/12/07 04:37:22;;;;;;;27.60;14.55;;;2.60;75.20;;;;;;4978306;28;20035;-63
2023/12/07 04:39:48;;;;;;;24.23;12.77;;;2.60;75.00;;;;;;4978300;28;20057;-63
2023/12/07 04:42:14;;;;;;;24.90;13.98;;;2.50;75.00;;;;;;4978232;28;20552;-63
2023/12/07 04:44:40;;;;;;;23.63;12.80;;;2.50;75.00;;;;;;4978312;28;20046;-63
2023/12/07 04:47:06;;;;;;;23.27;12.30;;;2.50;75.00;;;;;;4978049;28;20471;-63
2023/12/07 04:49:32;;;;;;;28.13;13.63;;;2.50;74.90;;;;;;4978044;28;20050;-63
2023/12/07 04:51:58;;;;;;;24.98;15.15;;;2.50;74.90;;;;;;4978062;28;20026;-63
2023/12/07 04:54:24;;;;;;;23.58;12.77;;;2.50;75.10;;;;;;4978210;28;20460;-63
2023/12/07 04:56:50;;;;;;;23.75;13.80;;;2.50;74.80;;;;;;4978209;28;20022;-63
2023/12/07 04:59:17;;;;;;;23.58;12.45;;;2.50;74.90;;;;;;4978119;28;20026;-63
2023/12/07 05:01:43;;;;;;;27.55;13.50;;;2.50;74.50;;;;;;4978368;28;20026;-63
2023/12/07 05:04:09;;;;;;;25.27;12.48;;;2.50;75.00;;;;;;4960681;28;20027;-63
2023/12/07 05:06:35;;;;;;;22.25;12.60;;;2.40;75.10;;;;;;4978168;28;20023;-63
2023/12/07 05:09:01;;;;;;;24.77;13.05;;;2.50;75.10;;;;;;4978044;28;20042;-63
2023/12/07 05:11:27;;;;;;;26.05;14.52;;;2.50;74.90;;;;;;4977664;28;20045;-63
2023/12/07 05:13:53;;;;;;;23.45;13.68;;;2.50;75.20;;;;;;4977791;28;20098;-63
2023/12/07 05:16:19;;;;;;;24.30;12.55;;;2.50;74.70;;;;;;4977814;28;20083;-63
2023/12/07 05:18:46;;;;;;;21.77;12.20;;;2.50;74.70;;;;;;5259392;23;20039;-64
2023/12/07 05:21:12;;;;;;;22.25;12.65;;;2.50;74.90;;;;;;4977531;28;20027;-65
2023/12/07 05:23:39;;;;;;;23.13;12.40;;;2.40;74.60;;;;;;4977445;28;20023;-65
2023/12/07 05:26:05;;;;;;;22.48;13.02;;;2.40;74.90;;;;;;4977944;28;20102;-65
2023/12/07 05:28:31;;;;;;;22.85;12.27;;;2.40;75.00;;;;;;4977125;28;20404;-65
2023/12/07 05:30:57;;;;;;;24.80;14.10;;;2.40;74.90;;;;;;4977274;28;20355;-65
2023/12/07 05:33:23;;;;;;;24.40;13.48;;;2.40;74.90;;;;;;4977199;28;20348;-64
2023/12/07 05:35:49;;;;;;;25.13;13.95;;;2.40;74.90;;;;;;4977222;28;20033;-64
2023/12/07 05:38:15;;;;;;;26.20;13.50;;;2.40;74.80;;;;;;4977082;28;20026;-65
2023/12/07 05:40:41;;;;;;;24.98;13.23;;;2.40;74.90;;;;;;4977621;28;20328;-65
2023/12/07 05:43:08;;;;;;;22.83;13.50;;;2.40;74.80;;;;;;4977006;28;20034;-64
2023/12/07 05:45:34;;;;;;;25.17;13.52;;;2.40;74.80;;;;;;4977767;28;20039;-64
2023/12/07 05:48:00;;;;;;;23.27;14.13;;;2.40;74.90;;;;;;4977395;28;20102;-65
2023/12/07 05:50:26;;;;;;;22.95;12.73;;;2.40;75.30;;;;;;4977504;28;20182;-65
2023/12/07 05:52:52;;;;;;;23.40;13.02;;;2.40;75.30;;;;;;4977135;28;20514;-65
2023/12/07 05:55:18;;;;;;;22.75;14.02;;;2.40;74.90;;;;;;4977416;28;20058;-64
2023/12/07 05:57:47;;;;;;;25.17;14.55;;;2.40;74.80;;;;;;4976833;28;20023;-64
2023/12/07 06:00:16;;;;;;;22.92;13.52;;;2.40;74.50;;;;;;4977366;28;20430;-64
2023/12/07 06:02:42;;;;;;;21.58;12.13;;;2.30;74.20;;;;;;4976712;28;20026;-65
2023/12/07 06:05:08;;;;;;;23.05;12.90;;;2.20;74.80;;;;;;4976662;28;20030;-65
2023/12/07 06:07:36;;;;;;;26.05;12.73;;;2.20;75.20;;;;;;4977067;28;20054;-65
2023/12/07 06:10:02;;;;;;;24.48;12.65;;;2.20;75.10;;;;;;4977226;28;20432;-64
2023/12/07 06:12:28;;;;;;;28.02;13.63;;;2.20;75.20;;;;;;4976667;28;20018;-65
2023/12/07 06:14:54;;;;;;;25.48;13.07;;;2.20;75.40;;;;;;4976869;28;20042;-65
2023/12/07 06:17:21;;;;;;;24.95;12.98;;;2.30;75.50;;;;;;4976812;28;20059;-65
2023/12/07 06:19:47;;;;;;;28.33;12.82;;;2.30;75.30;;;;;;4976323;28;20073;-65
2023/12/07 06:22:13;;;;;;;24.40;13.15;;;2.40;75.20;;;;;;4959506;28;20424;-65
2023/12/07 06:24:39;;;;;;;25.55;12.98;;;2.30;74.90;;;;;;4976413;28;20487;-65
2023/12/07 06:27:06;;;;;;;28.60;14.65;;;2.30;74.90;;;;;;4976677;28;20047;-65
2023/12/07 06:29:32;;;;;;;23.25;12.80;;;2.30;74.50;;;;;;4976643;28;20042;-65
2023/12/07 06:32:00;;;;;;;22.63;13.02;;;2.20;74.60;;;;;;4976708;28;20022;-65
2023/12/07 06:34:28;;;;;;;31.02;14.48;;;2.20;74.90;;;;;;4976605;28;20035;-65
2023/12/07 06:36:54;;;;;;;31.58;17.98;;;2.20;74.90;;;;;;4976298;28;20456;-65
2023/12/07 06:39:20;;;;;;;23.33;13.57;;;2.20;75.10;;;;;;4976315;28;20018;-65
2023/12/07 06:41:46;;;;;;;24.05;14.20;;;2.20;74.60;;;;;;4976371;28;20023;-64
2023/12/07 06:44:12;;;;;;;25.85;15.05;;;2.10;74.40;;;;;;4976342;28;20029;-65
2023/12/07 06:46:39;;;;;;;31.15;15.80;;;2.10;74.80;;;;;;4976308;28;20106;-65
2023/12/07 06:49:05;;;;;;;27.00;14.77;;;2.10;74.60;;;;;;4976137;28;20164;-64
2023/12/07 06:51:31;;;;;;;29.73;16.00;;;2.10;74.90;;;;;;4976818;28;20517;-65
2023/12/07 06:53:57;;;;;;;25.40;14.80;;;2.00;74.30;;;;;;4976986;28;20101;-65
2023/12/07 06:56:25;;;;;;;26.63;14.48;;;2.00;74.20;;;;;;4980426;28;20112;-65
2023/12/07 06:58:51;;;;;;;29.35;16.13;;;2.00;74.70;;;;;;4979914;28;20031;-65
2023/12/07 07:01:16;;;;;;;25.52;15.35;;;2.00;75.50;;;;;;4980002;28;20041;-64
2023/12/07 07:03:42;;;;;;;20.92;12.65;;;2.00;75.50;;;;;;4980496;28;20475;-65
2023/12/07 07:06:08;;;;;;;25.83;15.32;;;2.00;75.40;;;;;;4980193;28;20333;-65
2023/12/07 07:08:34;;;;;;;27.00;15.57;;;2.10;75.30;;;;;;4980275;28;20025;-64
2023/12/07 07:11:00;;;;;;;28.60;14.65;;;2.10;75.30;;;;;;4980161;28;20328;-65
2023/12/07 07:13:26;;;;;;;28.80;14.77;;;2.10;75.40;;;;;;4979809;28;20035;-65
2023/12/07 07:15:52;;;;;;;25.77;15.07;;;2.20;75.40;;;;;;4980018;28;20059;-65
2023/12/07 07:18:18;;;;;;;28.98;14.50;;;2.20;75.40;;;;;;4979444;28;20493;-64
2023/12/07 07:20:44;;;;;;;26.23;15.82;;;2.20;75.30;;;;;;4979635;28;20058;-65
2023/12/07 07:23:10;;;;;;;30.45;14.23;;;2.30;75.40;;;;;;4979944;28;20027;-65
2023/12/07 07:25:36;;;;;;;27.38;15.20;;;2.30;75.20;;;;;;4980129;28;20436;-64
2023/12/07 07:28:03;;;;;;;24.60;13.75;;;2.30;75.60;;;;;;4979869;28;20495;-64
2023/12/07 07:30:29;;;;;;;24.35;13.40;;;2.40;75.60;;;;;;4979497;28;20109;-64
2023/12/07 07:32:55;;;;;;;29.15;14.98;;;2.40;75.30;;;;;;4980022;28;20030;-65
2023/12/07 07:35:21;;;;;;;29.58;14.43;;;2.40;75.60;;;;;;4979965;28;20023;-65
2023/12/07 07:37:49;;;;;;;25.02;13.55;;;2.40;75.60;;;;;;4979234;28;20050;-65
2023/12/07 07:40:15;;;;;;;26.83;13.23;;;2.50;75.70;;;;;;4979400;28;20046;-64
2023/12/07 07:42:41;;;;;;;28.67;14.30;;;2.60;75.70;;;;;;4979338;28;20125;-65
2023/12/07 07:45:08;;;;;;;25.60;14.05;;;2.60;75.90;;;;;;4979258;28;20027;-65
2023/12/07 07:47:34;;;;;;;25.65;13.70;;;2.70;75.90;;;;;;4979276;28;20073;-65
2023/12/07 07:50:05;;;;;;;28.83;15.48;;;2.80;76.00;;;;;;5202879;23;20405;-66
2023/12/07 07:52:33;;;;;;;32.45;18.05;;;2.80;75.90;;;;;;4960079;29;20477;-67
2023/12/07 07:55:01;;;;;;;30.40;15.23;;;2.90;75.80;;;;;;4959783;29;20503;-67
2023/12/07 07:57:27;;;;;;;30.73;15.00;;;3.00;75.90;;;;;;4959711;29;20082;-67
2023/12/07 07:59:53;;;;;;;38.78;17.67;;;3.10;76.10;;;;;;4960580;29;20035;-67
2023/12/07 08:02:21;;;;;;;41.33;20.35;;;3.30;76.30;;;;;;4978756;28;20518;-67
2023/12/07 08:04:47;;;;;;;35.67;19.00;;;3.40;76.50;;;;;;4978363;28;20026;-67
2023/12/07 08:07:14;;;;;;;33.38;17.80;;;3.50;76.60;;;;;;4978960;28;20070;-67
2023/12/07 08:09:40;;;;;;;41.75;22.58;;;3.70;76.80;;;;;;4978944;28;20038;-67
2023/12/07 08:12:08;;;;;;;36.17;19.77;;;3.80;77.10;;;;;;4979013;28;20023;-67
2023/12/07 08:14:37;;;;;;;44.30;20.95;;;3.90;76.90;;;;;;4979252;28;20018;-67
2023/12/07 08:17:04;;;;;;;36.33;19.55;;;4.10;76.90;;;;;;4979213;28;20074;-67
2023/12/07 08:19:30;;;;;;;41.47;22.25;;;4.20;76.80;;;;;;4978887;28;20026;-70
2023/12/07 08:21:56;;;;;;;41.45;21.40;;;4.40;77.00;;;;;;4978858;28;20157;-67
2023/12/07 08:24:22;;;;;;;32.65;18.70;;;4.50;76.80;;;;;;4978741;28;20034;-67
2023/12/07 08:29:27;;;;;;;31.80;19.30;;;4.80;76.60;;;;;;4955691;29;20051;-69
2023/12/07 08:31:53;;;;;;;33.90;18.13;;;4.90;76.60;;;;;;4959814;29;20063;-68
2023/12/07 08:34:19;;;;;;;33.03;18.25;;;5.00;76.70;;;;;;4959007;29;20023;-68
2023/12/07 08:36:45;;;;;;;27.17;15.48;;;5.20;76.60;;;;;;4958991;29;20031;-67
2023/12/07 08:39:11;;;;;;;32.00;17.55;;;5.40;76.20;;;;;;4958724;29;20075;-66
2023/12/07 08:41:37;;;;;;;37.58;21.15;;;5.50;76.00;;;;;;4958795;28;20114;-68
2023/12/07 08:44:04;;;;;;;36.83;21.48;;;5.70;75.10;;;;;;4958788;29;20034;-67
2023/12/07 08:46:30;;;;;;;28.80;17.35;;;5.80;74.60;;;;;;4959302;29;20039;-67
2023/12/07 08:48:56;;;;;;;43.97;22.05;;;5.90;74.60;;;;;;4958871;28;20038;-68
2023/12/07 08:51:23;;;;;;;36.05;21.05;;;5.90;73.40;;;;;;4958947;28;20035;-66
2023/12/07 08:53:51;;;;;;;34.65;19.80;;;6.10;74.00;;;;;;4959229;28;20083;-68
2023/12/07 08:58:53;;;;;;;36.15;20.15;;;6.30;74.80;;;;;;5435091;23;20538;-68
2023/12/07 09:01:20;;;;;;;36.85;20.52;;;6.50;74.60;;;;;;4978120;28;20038;-67
2023/12/07 09:03:46;;;;;;;35.92;19.60;;;6.70;73.80;;;;;;4977788;28;20027;-67
2023/12/07 09:08:39;;;;;;;31.63;18.08;;;6.90;74.60;;;;;;4955452;29;20103;-67
2023/12/07 09:11:05;;;;;;;31.92;17.30;;;7.10;74.40;;;;;;4958661;29;20027;-67
2023/12/07 09:13:31;;;;;;;33.35;18.95;;;7.30;74.30;;;;;;5219059;23;20054;-67
2023/12/07 09:15:57;;;;;;;32.42;18.98;;;7.40;74.00;;;;;;4977744;28;20447;-67
2023/12/07 09:18:24;;;;;;;34.40;19.77;;;7.60;73.90;;;;;;5230063;23;20141;-67
2023/12/07 09:20:50;;;;;;;31.65;19.30;;;7.70;73.60;;;;;;4978016;28;20038;-66
2023/12/07 09:23:18;;;;;;;38.85;21.60;;;7.90;73.60;;;;;;4977416;28;20027;-66
2023/12/07 09:25:46;;;;;;;33.85;19.48;;;7.90;73.10;;;;;;4977340;28;20027;-66
2023/12/07 09:28:12;;;;;;;31.38;18.65;;;8.10;72.90;;;;;;4977128;28;20040;-66
2023/12/07 09:30:38;;;;;;;35.50;20.65;;;8.20;72.90;;;;;;4977251;28;20023;-66
2023/12/07 09:33:04;;;;;;;30.88;18.13;;;8.20;72.60;;;;;;4977223;28;20066;-66
2023/12/07 09:35:31;;;;;;;28.30;17.58;;;8.30;72.50;;;;;;4977152;28;20119;-66
2023/12/07 09:37:57;;;;;;;26.25;16.25;;;8.40;72.00;;;;;;4977094;28;20050;-66
2023/12/07 09:40:25;;;;;;;25.80;14.23;;;8.50;71.30;;;;;;4977103;28;20018;-66
2023/12/07 09:43:18;;;;;;;28.45;14.98;;;8.60;71.70;;;;;;5161736;23;20067;-66
2023/12/07 09:45:45;;;;;;;28.15;16.00;;;8.60;71.70;;;;;;4959967;28;20029;-66
2023/12/07 09:48:11;;;;;;;30.73;16.27;;;8.70;71.60;;;;;;4959839;28;20134;-66
2023/12/07 09:50:37;;;;;;;27.25;15.55;;;8.80;71.60;;;;;;4959868;28;20109;-67
2023/12/07 09:53:03;;;;;;;26.80;14.63;;;8.90;71.50;;;;;;4976846;28;20023;-68
2023/12/07 09:55:30;;;;;;;26.88;14.88;;;8.90;71.00;;;;;;4977330;28;20023;-67
2023/12/07 09:57:58;;;;;;;26.00;15.40;;;9.00;70.50;;;;;;4976842;28;20027;-67
2023/12/07 10:00:24;;;;;;;28.25;15.52;;;9.10;70.60;;;;;;4977065;28;20030;-66
2023/12/07 10:02:50;;;;;;;34.95;19.50;;;9.10;70.00;;;;;;4976683;28;20033;-67
2023/12/07 10:05:16;;;;;;;31.75;17.23;;;9.20;70.40;;;;;;4976643;28;20070;-67
2023/12/07 10:10:14;;;;;;;26.63;15.20;;;9.30;70.10;;;;;;5217584;23;20071;-67
2023/12/07 10:12:54;;;;;;;29.13;15.70;;;9.30;70.00;;;;;;4957844;29;20042;-68
2023/12/07 10:15:23;;;;;;;25.98;15.93;;;9.40;69.90;;;;;;4936177;29;20074;-67
2023/12/07 10:17:59;;;;;;;23.73;14.82;;;9.50;69.90;;;;;;4956430;29;20027;-67
2023/12/07 10:20:29;;;;;;;23.70;14.07;;;9.60;69.60;;;;;;4957358;29;20019;-66
2023/12/07 10:23:07;;;;;;;27.52;15.73;;;9.60;69.40;;;;;;4957275;29;20150;-69
2023/12/07 10:28:12;;;;;;;27.83;15.45;;;9.80;69.00;;;;;;5185875;23;20070;-66
2023/12/07 10:30:43;;;;;;;27.73;16.00;;;9.90;68.20;;;;;;4957959;29;20023;-68
2023/12/07 10:33:10;;;;;;;29.33;16.83;;;9.90;68.50;;;;;;4957405;29;20352;-68
2023/12/07 10:35:40;;;;;;;27.13;14.45;;;10.00;67.70;;;;;;4957124;29;20031;-67
2023/12/07 10:38:08;;;;;;;22.80;13.48;;;10.00;67.80;;;;;;4957331;29;20054;-68
2023/12/07 10:40:35;;;;;;;23.67;13.68;;;10.10;67.10;;;;;;4957110;29;20449;-67
2023/12/07 10:43:05;;;;;;;22.02;13.38;;;10.10;66.30;;;;;;4959466;28;20031;-69
2023/12/07 10:45:34;;;;;;;21.00;12.27;;;10.10;66.20;;;;;;4976305;28;20452;-69
2023/12/07 10:48:10;;;;;;;22.20;14.18;;;10.10;66.00;;;;;;4976091;28;20027;-69
2023/12/07 10:50:49;;;;;;;21.17;12.52;;;10.10;64.40;;;;;;4976789;28;20495;-68
2023/12/07 10:53:28;;;;;;;17.65;11.32;;;10.10;63.90;;;;;;4976761;28;20047;-67
2023/12/07 10:56:01;;;;;;;17.92;10.95;;;10.10;64.80;;;;;;4976509;28;20033;-68
2023/12/07 10:58:27;;;;;;;21.83;11.60;;;10.10;62.70;;;;;;4976176;28;20031;-67
2023/12/07 11:00:53;;;;;;;20.85;11.48;;;10.20;62.80;;;;;;4976102;28;20090;-68
2023/12/07 11:03:23;;;;;;;16.92;10.95;;;10.20;62.90;;;;;;4976098;28;20444;-67
2023/12/07 11:05:51;;;;;;;19.50;11.93;;;10.30;63.00;;;;;;4976149;28;20038;-67
2023/12/07 11:08:27;;;;;;;20.50;11.38;;;10.30;62.30;;;;;;4975992;28;20031;-69
2023/12/07 11:11:10;;;;;;;18.63;11.27;;;10.40;63.30;;;;;;4976670;28;20038;-67
2023/12/07 11:13:37;;;;;;;17.48;10.90;;;10.50;63.00;;;;;;4976143;28;20333;-69
2023/12/07 11:16:04;;;;;;;20.77;12.20;;;10.50;62.30;;;;;;4975973;28;20108;-69
2023/12/07 11:18:30;;;;;;;17.52;11.68;;;10.60;62.60;;;;;;4975940;28;20037;-68
2023/12/07 11:20:57;;;;;;;17.73;11.25;;;10.60;62.40;;;;;;4976278;28;20026;-68
2023/12/07 11:23:23;;;;;;;21.35;12.55;;;10.60;62.60;;;;;;4976269;28;20030;-69
2023/12/07 11:25:52;;;;;;;19.35;11.68;;;10.70;60.80;;;;;;4958928;28;20062;-68
2023/12/07 11:28:19;;;;;;;20.48;12.13;;;10.70;62.30;;;;;;4958505;28;20035;-67
2023/12/07 11:30:47;;;;;;;18.25;11.18;;;10.80;61.40;;;;;;4958918;28;20057;-67
2023/12/07 11:33:15;;;;;;;19.38;11.90;;;10.80;61.80;;;;;;4976377;28;20034;-69
2023/12/07 11:36:02;;;;;;;17.48;11.68;;;10.90;62.00;;;;;;4959237;28;20089;-67
2023/12/07 11:38:30;;;;;;;19.55;11.50;;;10.90;61.40;;;;;;4975798;28;20487;-68
2023/12/07 11:40:57;;;;;;;18.42;12.07;;;11.00;61.80;;;;;;4978526;28;20031;-67
2023/12/07 11:43:35;;;;;;;18.25;11.98;;;11.00;61.10;;;;;;4979806;28;20110;-70
2023/12/07 11:46:02;;;;;;;18.65;11.98;;;11.10;62.10;;;;;;4962219;28;20043;-68
2023/12/07 11:48:28;;;;;;;20.48;11.65;;;11.10;61.80;;;;;;4979144;28;20097;-68
2023/12/07 11:50:58;;;;;;;22.15;12.60;;;11.20;61.10;;;;;;4979219;28;20105;-68
2023/12/07 11:53:26;;;;;;;21.13;12.57;;;11.30;61.20;;;;;;4979129;28;20019;-68
2023/12/07 11:55:53;;;;;;;18.30;11.18;;;11.30;61.30;;;;;;4962100;28;20109;-68
2023/12/07 11:58:20;;;;;;;21.05;12.23;;;11.30;61.10;;;;;;4978993;28;20042;-69
2023/12/07 12:00:47;;;;;;;19.00;11.77;;;11.40;61.10;;;;;;4979001;28;20035;-69
2023/12/07 12:03:14;;;;;;;21.30;13.60;;;11.40;60.40;;;;;;4978990;28;20023;-69
2023/12/07 12:05:43;;;;;;;17.98;11.98;;;11.40;59.90;;;;;;4978857;28;20368;-69
2023/12/07 12:08:09;;;;;;;20.10;12.25;;;11.50;60.20;;;;;;4978682;28;20019;-67
2023/12/07 12:10:36;;;;;;;19.55;12.02;;;11.50;60.60;;;;;;4978785;28;20086;-69
2023/12/07 12:13:03;;;;;;;18.52;12.40;;;11.50;58.50;;;;;;4979298;28;20023;-69
2023/12/07 12:15:30;;;;;;;20.02;11.50;;;11.60;59.50;;;;;;4978725;28;20031;-67
2023/12/07 12:17:59;;;;;;;20.55;12.63;;;11.60;59.70;;;;;;4978657;28;20077;-65
2023/12/07 12:20:26;;;;;;;19.85;12.05;;;11.60;59.40;;;;;;4978665;28;20109;-69
2023/12/07 12:22:53;;;;;;;20.15;12.55;;;11.60;57.30;;;;;;4979182;28;20031;-68
2023/12/07 12:25:26;;;;;;;21.98;13.40;;;11.50;58.30;;;;;;4978565;28;20359;-67
2023/12/07 12:28:05;;;;;;;19.67;12.43;;;11.50;58.30;;;;;;4978135;28;20459;-69
2023/12/07 12:30:31;;;;;;;21.13;11.95;;;11.40;58.20;;;;;;4961867;28;20033;-67
2023/12/07 12:32:59;;;;;;;17.77;11.27;;;11.50;58.60;;;;;;4978408;28;20034;-67
2023/12/07 12:35:27;;;;;;;15.60;9.88;;;11.50;58.80;;;;;;4978632;28;20023;-68
2023/12/07 12:37:55;;;;;;;20.45;11.38;;;11.50;59.60;;;;;;4978467;28;20109;-68
2023/12/07 12:40:22;;;;;;;20.30;12.43;;;11.50;59.50;;;;;;4978213;28;20038;-69
2023/12/07 12:42:50;;;;;;;19.75;12.10;;;11.40;56.00;;;;;;4978513;28;20038;-69
2023/12/07 12:45:20;;;;;;;19.73;11.77;;;11.40;57.30;;;;;;4945519;28;20031;-68
2023/12/07 12:47:48;;;;;;;15.60;9.95;;;11.40;58.30;;;;;;4978012;28;20054;-68